Time;durP1;ratioP1;P1;durP2;ratioP2;P2;SDS_P1;SDS_P2;PMS_P1;PMS_P2;Temp;Humidity;BMP_temperature;BMP_pressure;BME280_temperature;BME280_humidity;BME280_pressure;Samples;Min_cycle;Max_cycle;Signal;HPM_P1;HPM_P2
2023/05/12 00:01:13;;;;;;;13.45;9.15;;;12.30;99.90;;;;;;5136485;27;20436;-35
2023/05/12 00:03:39;;;;;;;12.38;8.55;;;12.30;99.90;;;;;;5156048;27;20042;-36
2023/05/12 00:06:05;;;;;;;12.95;8.75;;;12.20;99.90;;;;;;5155878;27;20038;-35
2023/05/12 00:08:31;;;;;;;12.95;9.40;;;12.20;99.90;;;;;;5155949;27;20049;-35
2023/05/12 00:10:57;;;;;;;16.92;11.32;;;12.30;99.90;;;;;;5156095;27;20038;-35
2023/05/12 00:13:23;;;;;;;14.60;10.27;;;12.30;99.90;;;;;;5137545;27;20383;-35
2023/05/12 00:15:54;;;;;;;15.15;9.98;;;12.20;99.90;;;;;;5135197;27;20034;-35
2023/05/12 00:18:20;;;;;;;15.57;10.45;;;12.30;99.90;;;;;;5135526;27;20034;-35
2023/05/12 00:20:46;;;;;;;16.83;10.25;;;12.30;99.90;;;;;;5135129;27;20369;-35
2023/05/12 00:23:12;;;;;;;17.42;10.75;;;12.30;99.90;;;;;;5151228;27;20408;-36
2023/05/12 00:25:37;;;;;;;15.38;11.20;;;12.30;99.90;;;;;;5156031;27;20034;-35
2023/05/12 00:28:04;;;;;;;18.95;11.32;;;12.20;99.90;;;;;;5144619;27;20468;-35
2023/05/12 00:30:30;;;;;;;18.58;12.48;;;12.20;99.90;;;;;;5152725;27;20037;-35
2023/05/12 00:32:56;;;;;;;17.70;11.70;;;12.20;99.90;;;;;;5147004;27;20038;-36
2023/05/12 00:35:21;;;;;;;20.10;12.93;;;12.30;99.90;;;;;;5135980;27;20114;-35
2023/05/12 00:37:47;;;;;;;19.45;11.98;;;12.20;99.90;;;;;;5135795;27;20060;-35
2023/05/12 00:40:13;;;;;;;20.98;13.18;;;12.20;99.90;;;;;;5135648;27;20037;-35
2023/05/12 00:42:39;;;;;;;17.85;11.88;;;12.20;99.90;;;;;;5145374;27;20117;-35
2023/05/12 00:45:06;;;;;;;20.45;13.70;;;12.20;99.90;;;;;;5154013;27;20045;-35
2023/05/12 00:47:32;;;;;;;20.17;12.57;;;12.30;99.90;;;;;;5150624;27;20440;-35
2023/05/12 00:49:58;;;;;;;22.08;14.00;;;12.20;99.90;;;;;;5155629;27;20514;-35
2023/05/12 00:52:25;;;;;;;24.20;15.45;;;12.30;99.90;;;;;;5155904;27;20360;-35
2023/05/12 00:54:51;;;;;;;26.02;16.02;;;12.30;99.90;;;;;;5155732;27;20034;-35
2023/05/12 00:57:18;;;;;;;26.10;15.98;;;12.30;99.90;;;;;;5149860;27;20102;-35
2023/05/12 00:59:43;;;;;;;27.50;16.08;;;12.30;99.90;;;;;;5135024;27;20035;-35
2023/05/12 01:02:10;;;;;;;30.08;17.52;;;12.20;99.90;;;;;;5151980;27;20045;-35
2023/05/12 01:04:38;;;;;;;27.13;16.88;;;12.20;99.90;;;;;;5144446;27;20030;-35
2023/05/12 01:07:13;;;;;;;26.45;15.82;;;12.20;99.90;;;;;;5155596;27;20402;-35
2023/05/12 01:09:39;;;;;;;25.35;16.52;;;12.20;99.90;;;;;;5146223;27;20039;-35
2023/05/12 01:12:05;;;;;;;27.55;17.50;;;12.20;99.90;;;;;;5134403;27;20405;-35
2023/05/12 01:14:32;;;;;;;27.00;17.80;;;12.20;99.90;;;;;;5134639;27;20046;-36
2023/05/12 01:17:02;;;;;;;28.42;17.73;;;12.20;99.90;;;;;;5134475;27;20121;-35
2023/05/12 01:19:30;;;;;;;31.80;18.92;;;12.20;99.90;;;;;;5138268;27;20381;-35
2023/05/12 01:21:57;;;;;;;29.92;18.08;;;12.20;99.90;;;;;;5138655;27;20155;-35
2023/05/12 01:24:26;;;;;;;33.33;19.05;;;12.20;99.90;;;;;;5157248;27;20098;-36
2023/05/12 01:26:52;;;;;;;31.83;18.80;;;12.20;99.90;;;;;;5158863;27;20045;-35
2023/05/12 01:29:19;;;;;;;32.38;17.75;;;12.20;99.90;;;;;;5159347;27;20034;-36
2023/05/12 01:31:45;;;;;;;34.70;19.33;;;12.30;99.90;;;;;;5150539;27;20039;-35
2023/05/12 01:34:17;;;;;;;38.58;20.58;;;12.20;99.90;;;;;;5152701;27;20082;-35
2023/05/12 01:36:43;;;;;;;32.05;19.00;;;12.20;99.90;;;;;;5158974;27;20059;-34
2023/05/12 01:39:09;;;;;;;36.00;21.50;;;12.30;99.90;;;;;;5159032;27;20471;-35
2023/05/12 01:41:35;;;;;;;36.97;21.95;;;12.30;99.90;;;;;;5139116;27;20039;-35
2023/05/12 01:44:01;;;;;;;46.97;24.35;;;12.20;99.90;;;;;;5137903;27;20038;-35
2023/05/12 01:46:26;;;;;;;40.47;23.08;;;12.30;99.90;;;;;;5138094;27;20039;-35
2023/05/12 01:48:52;;;;;;;41.08;23.77;;;12.30;99.90;;;;;;5137502;27;20057;-35
2023/05/12 01:51:18;;;;;;;40.88;23.27;;;12.30;99.90;;;;;;5138129;27;20042;-35
2023/05/12 01:53:44;;;;;;;44.20;26.23;;;12.30;99.90;;;;;;5138078;27;20441;-35
2023/05/12 01:56:09;;;;;;;35.90;22.65;;;12.30;99.90;;;;;;5138054;27;20203;-35
2023/05/12 01:58:35;;;;;;;42.08;24.33;;;12.30;99.90;;;;;;5137624;27;20047;-35
2023/05/12 02:01:01;;;;;;;46.67;26.05;;;12.30;99.90;;;;;;5137920;27;20042;-35
2023/05/12 02:03:26;;;;;;;41.55;24.58;;;12.30;99.90;;;;;;5137590;27;20476;-35
2023/05/12 02:05:52;;;;;;;46.72;26.00;;;12.30;99.90;;;;;;5137808;27;20113;-36
2023/05/12 02:08:18;;;;;;;49.55;24.77;;;12.30;99.90;;;;;;5141529;27;20034;-35
2023/05/12 02:10:44;;;;;;;46.47;25.60;;;12.30;99.90;;;;;;5177046;27;20326;-35
2023/05/12 02:13:09;;;;;;;39.58;23.73;;;12.30;99.90;;;;;;5158340;27;20034;-35
2023/05/12 02:15:35;;;;;;;40.78;24.50;;;12.30;99.90;;;;;;5155011;27;20552;-35
2023/05/12 02:18:02;;;;;;;56.70;28.00;;;12.30;99.90;;;;;;5154805;27;20429;-35
2023/05/12 02:20:28;;;;;;;47.28;24.98;;;12.30;99.90;;;;;;5154656;27;20038;-35
2023/05/12 02:22:56;;;;;;;37.45;23.17;;;12.30;99.90;;;;;;5137610;27;20495;-35
2023/05/12 02:25:22;;;;;;;53.03;27.27;;;12.30;99.90;;;;;;5174990;27;20451;-35
2023/05/12 02:27:48;;;;;;;46.00;24.15;;;12.30;99.90;;;;;;5147459;27;20109;-35
2023/05/12 02:30:14;;;;;;;49.60;27.27;;;12.40;99.90;;;;;;5135876;27;20043;-35
2023/05/12 02:32:40;;;;;;;45.35;25.48;;;12.40;99.90;;;;;;5136913;27;20035;-35
2023/05/12 02:35:07;;;;;;;43.60;24.88;;;12.40;99.90;;;;;;5137064;27;20038;-35
2023/05/12 02:37:32;;;;;;;52.72;28.30;;;12.40;99.90;;;;;;5137006;27;20034;-34
2023/05/12 02:39:58;;;;;;;47.40;25.38;;;12.30;99.90;;;;;;5137211;27;20490;-35
2023/05/12 02:42:27;;;;;;;53.30;28.23;;;12.40;99.90;;;;;;5147403;27;20117;-35
2023/05/12 02:44:53;;;;;;;52.15;28.40;;;12.40;99.90;;;;;;5157457;27;20046;-35
2023/05/12 02:47:19;;;;;;;52.17;28.83;;;12.40;99.90;;;;;;5157673;27;20030;-35
2023/05/12 02:49:44;;;;;;;50.03;26.92;;;12.40;99.90;;;;;;5156965;27;20511;-35
2023/05/12 02:52:11;;;;;;;50.13;27.30;;;12.40;99.90;;;;;;5139584;27;20046;-35
2023/05/12 02:54:37;;;;;;;53.53;28.52;;;12.40;99.90;;;;;;5136496;27;20453;-35
2023/05/12 02:57:04;;;;;;;44.88;26.42;;;12.40;99.90;;;;;;5154095;27;20053;-35
2023/05/12 02:59:30;;;;;;;50.35;28.50;;;12.40;99.90;;;;;;5136882;27;20038;-35
2023/05/12 03:01:56;;;;;;;48.95;28.77;;;12.40;99.90;;;;;;5136403;27;20552;-36
2023/05/12 03:04:22;;;;;;;45.35;26.30;;;12.40;99.90;;;;;;5136301;27;20109;-35
2023/05/12 03:06:48;;;;;;;53.28;28.85;;;12.50;99.90;;;;;;5136674;27;20038;-35
2023/05/12 03:09:14;;;;;;;51.70;29.27;;;12.40;99.90;;;;;;5154783;27;20085;-36
2023/05/12 03:11:40;;;;;;;54.25;29.40;;;12.40;99.90;;;;;;5157124;27;20125;-35
2023/05/12 03:14:06;;;;;;;55.85;30.90;;;12.50;99.90;;;;;;5142239;27;20532;-35
2023/05/12 03:16:32;;;;;;;69.10;33.80;;;12.40;99.90;;;;;;5157130;27;20030;-35
2023/05/12 03:18:57;;;;;;;48.00;28.05;;;12.40;99.90;;;;;;5157150;27;20041;-35
2023/05/12 03:21:23;;;;;;;65.10;32.05;;;12.50;99.90;;;;;;5156834;27;20053;-36
2023/05/12 03:23:49;;;;;;;55.50;30.17;;;12.50;99.90;;;;;;5142616;27;20030;-37
2023/05/12 03:26:14;;;;;;;53.67;29.85;;;12.50;99.90;;;;;;5144089;27;20035;-38
2023/05/12 03:28:40;;;;;;;49.22;28.08;;;12.50;99.90;;;;;;5147688;27;20046;-38
2023/05/12 03:31:06;;;;;;;55.10;29.92;;;12.50;99.90;;;;;;5148283;27;20038;-36
2023/05/12 03:33:31;;;;;;;51.72;29.70;;;12.50;99.90;;;;;;5146307;27;20403;-37
2023/05/12 03:35:57;;;;;;;51.22;29.23;;;12.50;99.90;;;;;;5141640;27;20049;-36
2023/05/12 03:38:23;;;;;;;54.30;29.80;;;12.50;99.90;;;;;;5167111;27;20399;-37
2023/05/12 03:40:51;;;;;;;52.40;29.58;;;12.50;99.90;;;;;;5139748;27;20039;-37
2023/05/12 03:43:17;;;;;;;59.42;30.75;;;12.50;99.90;;;;;;5143659;27;20403;-38
2023/05/12 03:45:43;;;;;;;64.35;33.30;;;12.50;99.90;;;;;;5134812;27;20066;-36
2023/05/12 03:48:09;;;;;;;62.03;32.17;;;12.50;99.90;;;;;;5143251;27;20061;-40
2023/05/12 03:50:35;;;;;;;67.50;33.80;;;12.50;99.90;;;;;;5139873;27;20557;-38
2023/05/12 03:53:00;;;;;;;58.55;32.17;;;12.50;99.90;;;;;;5143925;27;20050;-38
2023/05/12 03:55:26;;;;;;;57.40;31.23;;;12.50;99.90;;;;;;5153428;27;20034;-36
2023/05/12 03:57:52;;;;;;;69.38;34.08;;;12.60;99.90;;;;;;5151308;27;20066;-41
2023/05/12 04:00:18;;;;;;;60.75;32.50;;;12.60;99.90;;;;;;5142519;27;20053;-36
2023/05/12 04:02:45;;;;;;;64.50;33.97;;;12.60;99.90;;;;;;5147247;27;20492;-35
2023/05/12 04:05:10;;;;;;;57.40;32.65;;;12.60;99.90;;;;;;5139642;27;20034;-35
2023/05/12 04:07:37;;;;;;;65.93;35.58;;;12.60;99.90;;;;;;5147243;27;20407;-35
2023/05/12 04:10:03;;;;;;;64.20;34.92;;;12.60;99.90;;;;;;5140326;27;20034;-36
2023/05/12 04:12:29;;;;;;;66.68;34.67;;;12.60;99.90;;;;;;5142486;27;20037;-36
2023/05/12 04:14:54;;;;;;;60.00;33.00;;;12.60;99.90;;;;;;5146057;27;20038;-36
2023/05/12 04:17:20;;;;;;;58.78;33.47;;;12.60;99.90;;;;;;5123406;27;20093;-35
2023/05/12 04:19:46;;;;;;;54.25;30.85;;;12.60;99.90;;;;;;5139992;27;20031;-37
2023/05/12 04:22:11;;;;;;;58.80;31.88;;;12.60;99.90;;;;;;5140878;27;20053;-39
2023/05/12 04:24:37;;;;;;;59.60;31.42;;;12.70;99.90;;;;;;5147123;27;20034;-36
2023/05/12 04:27:04;;;;;;;57.38;30.00;;;12.70;99.90;;;;;;5143073;27;20399;-36
2023/05/12 04:29:29;;;;;;;57.40;31.90;;;12.70;99.90;;;;;;5142295;27;20373;-37
2023/05/12 04:31:55;;;;;;;57.00;30.45;;;12.80;99.90;;;;;;5142365;27;20053;-35
2023/05/12 04:34:21;;;;;;;64.53;33.45;;;12.70;99.90;;;;;;5138048;27;20042;-35
2023/05/12 04:36:46;;;;;;;56.95;32.42;;;12.70;99.90;;;;;;5148906;27;20061;-37
2023/05/12 04:39:12;;;;;;;50.65;28.35;;;12.80;99.90;;;;;;5143886;27;20042;-39
2023/05/12 04:41:38;;;;;;;49.80;29.45;;;12.80;99.90;;;;;;5144582;27;20042;-40
2023/05/12 04:44:04;;;;;;;50.95;29.73;;;12.80;99.90;;;;;;5152823;27;20555;-36
2023/05/12 04:46:30;;;;;;;46.85;29.50;;;12.80;99.90;;;;;;5145371;27;20117;-36
2023/05/12 04:48:55;;;;;;;49.50;29.83;;;12.80;99.90;;;;;;5144784;27;20042;-35
2023/05/12 04:51:21;;;;;;;48.70;29.50;;;12.80;99.90;;;;;;5142392;27;20046;-35
2023/05/12 04:53:47;;;;;;;49.85;30.38;;;12.90;99.90;;;;;;5153525;27;20045;-36
2023/05/12 04:56:13;;;;;;;51.03;30.08;;;12.90;99.90;;;;;;5155088;27;20050;-39
2023/05/12 04:58:38;;;;;;;43.78;26.60;;;12.90;99.90;;;;;;5146713;27;20050;-36
2023/05/12 05:01:04;;;;;;;47.35;28.98;;;12.90;99.90;;;;;;5138598;27;20492;-36
2023/05/12 05:03:30;;;;;;;44.92;28.10;;;12.90;99.90;;;;;;5137594;27;20035;-35
2023/05/12 05:05:56;;;;;;;48.00;28.00;;;12.90;99.90;;;;;;5145580;27;20038;-36
2023/05/12 05:08:22;;;;;;;47.80;29.38;;;13.00;99.90;;;;;;5168520;27;20038;-36
2023/05/12 05:10:47;;;;;;;51.10;30.80;;;13.00;99.90;;;;;;5144585;27;20094;-36
2023/05/12 05:13:13;;;;;;;45.03;28.20;;;13.00;99.90;;;;;;5148991;27;20034;-36
2023/05/12 05:15:39;;;;;;;53.95;30.35;;;13.00;99.90;;;;;;5129187;27;20118;-37
2023/05/12 05:18:05;;;;;;;43.90;26.88;;;13.00;99.90;;;;;;5146102;27;20040;-36
2023/05/12 05:20:33;;;;;;;48.53;29.88;;;13.00;99.90;;;;;;5122002;27;20038;-36
2023/05/12 05:22:58;;;;;;;52.75;27.70;;;13.00;99.90;;;;;;5152044;27;20092;-37
2023/05/12 05:25:25;;;;;;;45.33;27.15;;;13.00;99.90;;;;;;5147127;27;20061;-35
2023/05/12 05:27:51;;;;;;;48.83;28.27;;;13.00;99.90;;;;;;5157297;27;20451;-36
2023/05/12 05:30:20;;;;;;;45.80;27.83;;;13.00;99.90;;;;;;5148972;27;20070;-36
2023/05/12 05:32:46;;;;;;;44.58;28.42;;;13.10;99.90;;;;;;5144980;27;20121;-36
2023/05/12 05:35:12;;;;;;;50.83;28.45;;;13.10;99.90;;;;;;5171458;27;20062;-39
2023/05/12 05:37:38;;;;;;;48.63;28.25;;;13.10;99.90;;;;;;5165548;27;20027;-36
2023/05/12 05:40:06;;;;;;;47.15;27.98;;;13.10;99.90;;;;;;5164156;27;20099;-40
2023/05/12 05:42:32;;;;;;;46.80;28.17;;;13.10;99.90;;;;;;5132413;27;20110;-39
2023/05/12 05:44:58;;;;;;;45.65;27.13;;;13.10;99.90;;;;;;5148535;27;20491;-35
2023/05/12 05:47:24;;;;;;;46.80;29.33;;;13.10;99.90;;;;;;5145808;27;20033;-36
2023/05/12 05:49:49;;;;;;;47.67;26.73;;;13.10;99.90;;;;;;5149987;27;20537;-35
2023/05/12 05:52:15;;;;;;;44.60;27.27;;;13.10;99.90;;;;;;5134075;27;20034;-37
2023/05/12 05:54:41;;;;;;;52.53;29.20;;;13.10;99.90;;;;;;5152885;27;20041;-35
2023/05/12 05:57:07;;;;;;;52.20;29.60;;;13.20;99.90;;;;;;5148967;27;20121;-38
2023/05/12 05:59:32;;;;;;;53.33;30.98;;;13.20;99.90;;;;;;5152604;27;20463;-39
2023/05/12 06:01:58;;;;;;;50.85;29.42;;;13.20;99.90;;;;;;5149791;27;20026;-36
2023/05/12 06:04:25;;;;;;;50.20;27.92;;;13.20;99.90;;;;;;5151523;27;20062;-36
2023/05/12 06:06:50;;;;;;;49.47;29.10;;;13.20;99.90;;;;;;5170974;27;20090;-39
2023/05/12 06:09:16;;;;;;;49.63;28.30;;;13.30;99.90;;;;;;5150339;27;20038;-35
2023/05/12 06:11:42;;;;;;;45.30;28.00;;;13.30;99.90;;;;;;5153627;27;20122;-36
2023/05/12 06:14:08;;;;;;;47.33;27.45;;;13.40;99.90;;;;;;5149926;27;20137;-36
2023/05/12 06:16:34;;;;;;;49.00;28.35;;;13.40;99.90;;;;;;5146679;27;20030;-37
2023/05/12 06:19:00;;;;;;;51.03;29.83;;;13.40;99.90;;;;;;5150560;27;20034;-36
2023/05/12 06:21:25;;;;;;;51.55;29.50;;;13.50;99.90;;;;;;5138429;27;20121;-35
2023/05/12 06:23:51;;;;;;;50.20;29.58;;;13.50;99.90;;;;;;5148400;27;20487;-36
2023/05/12 06:26:17;;;;;;;49.17;30.15;;;13.50;99.90;;;;;;5155702;27;20042;-38
2023/05/12 06:28:43;;;;;;;44.40;27.45;;;13.60;99.90;;;;;;5146878;27;20038;-38
2023/05/12 06:31:08;;;;;;;45.80;28.08;;;13.70;99.90;;;;;;5139080;27;20483;-36
2023/05/12 06:33:34;;;;;;;43.17;27.13;;;13.70;99.90;;;;;;5151114;27;20031;-36
2023/05/12 06:36:00;;;;;;;44.22;27.75;;;13.80;99.90;;;;;;5137837;27;20038;-36
2023/05/12 06:38:26;;;;;;;44.10;28.20;;;13.90;99.90;;;;;;5146940;27;20026;-39
2023/05/12 06:40:51;;;;;;;42.42;27.73;;;13.90;99.90;;;;;;5142528;27;20049;-39
2023/05/12 06:43:17;;;;;;;46.92;29.05;;;14.00;99.90;;;;;;5138566;27;20150;-35
2023/05/12 06:45:43;;;;;;;49.97;28.70;;;14.10;99.90;;;;;;5144829;27;20046;-36
2023/05/12 06:48:09;;;;;;;40.60;26.65;;;14.20;99.90;;;;;;5144954;27;20034;-36
2023/05/12 06:50:35;;;;;;;44.38;28.73;;;14.20;99.90;;;;;;5147304;27;20039;-36
2023/05/12 06:53:01;;;;;;;42.88;27.80;;;14.20;99.90;;;;;;5142565;27;20038;-36
2023/05/12 06:55:27;;;;;;;42.10;27.35;;;14.20;99.90;;;;;;5148085;27;20027;-36
2023/05/12 06:57:54;;;;;;;43.28;27.95;;;14.30;99.90;;;;;;5140092;27;20372;-39
2023/05/12 07:00:24;;;;;;;43.38;27.40;;;14.30;99.90;;;;;;5144779;27;20041;-38
2023/05/12 07:02:51;;;;;;;43.00;26.38;;;14.40;99.90;;;;;;5149677;27;20057;-40
2023/05/12 07:05:17;;;;;;;42.22;28.23;;;14.40;99.90;;;;;;5143598;27;20034;-36
2023/05/12 07:07:43;;;;;;;37.92;27.20;;;14.40;99.90;;;;;;5156501;27;20447;-35
2023/05/12 07:10:09;;;;;;;34.78;24.85;;;14.50;99.90;;;;;;5145240;27;20035;-36
2023/05/12 07:12:37;;;;;;;37.33;26.73;;;14.50;99.90;;;;;;5135069;27;20035;-35
2023/05/12 07:15:03;;;;;;;39.28;27.05;;;14.60;99.90;;;;;;5138359;27;20030;-38
2023/05/12 07:17:29;;;;;;;39.78;27.38;;;14.70;99.90;;;;;;5144662;27;20093;-37
2023/05/12 07:19:55;;;;;;;38.30;26.00;;;14.80;99.90;;;;;;5156338;27;20038;-37
2023/05/12 07:22:22;;;;;;;38.72;26.50;;;14.90;99.90;;;;;;5129561;27;20038;-38
2023/05/12 07:24:48;;;;;;;40.72;28.58;;;15.10;99.90;;;;;;5148074;27;20034;-36
2023/05/12 07:27:14;;;;;;;36.63;26.13;;;15.10;99.90;;;;;;5147306;27;20057;-37
2023/05/12 07:29:40;;;;;;;38.17;26.80;;;15.20;99.90;;;;;;5144775;27;20034;-36
2023/05/12 07:32:06;;;;;;;36.85;26.88;;;15.10;99.90;;;;;;5148047;27;20398;-36
2023/05/12 07:34:32;;;;;;;35.58;25.52;;;15.10;99.90;;;;;;5141031;27;20042;-36
2023/05/12 07:37:01;;;;;;;36.20;25.85;;;15.20;99.90;;;;;;5138593;27;20392;-35
2023/05/12 07:39:28;;;;;;;40.28;27.77;;;15.20;99.90;;;;;;5151252;27;20099;-35
2023/05/12 07:41:54;;;;;;;38.58;27.30;;;15.20;99.90;;;;;;5145944;27;20038;-38
2023/05/12 07:44:20;;;;;;;39.33;28.10;;;15.30;99.90;;;;;;5138600;27;20444;-38
2023/05/12 07:46:46;;;;;;;36.20;26.20;;;15.30;99.90;;;;;;5142003;27;20077;-36
2023/05/12 07:49:11;;;;;;;39.00;26.73;;;15.30;99.90;;;;;;5146043;27;20070;-38
2023/05/12 07:51:38;;;;;;;36.20;25.70;;;15.20;99.90;;;;;;5147842;27;20038;-40
2023/05/12 07:54:05;;;;;;;37.10;27.38;;;15.30;99.90;;;;;;5141431;27;20029;-36
2023/05/12 07:56:31;;;;;;;35.38;25.95;;;15.30;99.90;;;;;;5146416;27;20110;-36
2023/05/12 07:58:57;;;;;;;38.33;26.40;;;15.30;99.90;;;;;;5143988;27;20125;-38
2023/05/12 08:01:23;;;;;;;37.40;26.27;;;15.30;99.90;;;;;;5152100;27;20496;-37
2023/05/12 08:03:52;;;;;;;35.08;26.17;;;15.20;99.90;;;;;;5143682;27;20027;-38
2023/05/12 08:06:18;;;;;;;36.40;26.88;;;15.20;99.90;;;;;;5155818;27;20034;-35
2023/05/12 08:08:44;;;;;;;36.53;26.17;;;15.20;99.90;;;;;;5156015;27;20406;-35
2023/05/12 08:11:11;;;;;;;37.53;26.30;;;15.30;99.90;;;;;;5144773;27;20046;-36
2023/05/12 08:13:38;;;;;;;38.08;26.85;;;15.30;99.90;;;;;;5134647;27;20031;-37
2023/05/12 08:16:04;;;;;;;34.78;25.73;;;15.40;99.90;;;;;;5141866;27;20060;-38
2023/05/12 08:18:30;;;;;;;40.58;27.80;;;15.40;99.90;;;;;;5151268;27;20299;-37
2023/05/12 08:20:56;;;;;;;38.63;27.80;;;15.50;99.90;;;;;;5173599;27;20499;-36
2023/05/12 08:23:22;;;;;;;37.67;26.50;;;15.70;99.90;;;;;;5148500;27;20031;-38
2023/05/12 08:25:48;;;;;;;36.75;27.38;;;15.80;99.90;;;;;;5155012;27;20563;-37
2023/05/12 08:28:14;;;;;;;34.80;26.27;;;15.90;99.90;;;;;;5168901;27;20070;-36
2023/05/12 08:30:41;;;;;;;34.90;26.95;;;16.00;99.90;;;;;;5171435;27;20093;-38
2023/05/12 08:33:07;;;;;;;32.28;25.05;;;16.10;99.90;;;;;;5144478;27;20030;-40
2023/05/12 08:35:34;;;;;;;33.25;26.08;;;16.20;99.90;;;;;;5149174;27;20488;-38
2023/05/12 08:38:00;;;;;;;32.28;25.20;;;16.30;99.90;;;;;;5148469;27;20480;-37
2023/05/12 08:40:30;;;;;;;34.25;26.42;;;16.40;99.90;;;;;;5142974;27;20045;-37
2023/05/12 08:43:02;;;;;;;31.33;24.83;;;16.60;99.90;;;;;;5145304;27;20038;-36
2023/05/12 08:45:28;;;;;;;29.60;24.60;;;16.70;99.90;;;;;;5139634;27;20041;-39
2023/05/12 08:47:55;;;;;;;32.63;24.95;;;17.00;99.90;;;;;;5138784;27;20039;-37
2023/05/12 08:50:22;;;;;;;29.98;24.05;;;17.20;99.90;;;;;;5151777;27;20165;-39
2023/05/12 08:52:48;;;;;;;30.00;23.45;;;17.40;99.90;;;;;;5139572;27;20095;-39
2023/05/12 08:55:15;;;;;;;30.20;24.52;;;17.50;99.90;;;;;;5145830;27;20125;-36
2023/05/12 08:57:47;;;;;;;30.45;23.52;;;17.70;99.90;;;;;;5149450;27;20042;-37
2023/05/12 09:00:14;;;;;;;29.67;23.67;;;17.90;99.90;;;;;;5143088;27;20499;-37
2023/05/12 09:02:42;;;;;;;27.50;22.85;;;18.20;99.90;;;;;;5148201;27;20034;-39
2023/05/12 09:05:11;;;;;;;27.13;22.40;;;18.30;99.90;;;;;;5154869;27;20035;-37
2023/05/12 09:07:42;;;;;;;26.05;22.17;;;18.40;99.90;;;;;;5148669;27;20053;-37
2023/05/12 09:10:13;;;;;;;24.95;20.90;;;18.40;99.90;;;;;;5141523;27;20031;-41
2023/05/12 09:12:41;;;;;;;26.40;21.67;;;18.50;99.90;;;;;;5128461;27;20537;-37
2023/05/12 09:15:13;;;;;;;25.80;21.65;;;18.50;99.90;;;;;;5143401;27;20228;-36
2023/05/12 09:17:39;;;;;;;23.98;21.20;;;18.60;99.90;;;;;;5142289;27;20042;-37
2023/05/12 09:20:06;;;;;;;24.20;21.60;;;18.50;99.90;;;;;;5170105;27;20034;-36
2023/05/12 09:22:33;;;;;;;23.90;21.40;;;18.50;99.90;;;;;;5141883;27;20050;-39
2023/05/12 09:24:59;;;;;;;24.50;21.13;;;18.50;99.90;;;;;;5155044;27;20030;-36
2023/05/12 09:27:27;;;;;;;24.88;22.27;;;18.60;99.90;;;;;;5149460;27;20037;-38
2023/05/12 09:29:53;;;;;;;23.00;19.48;;;18.70;99.90;;;;;;5152356;27;20038;-36
2023/05/12 09:32:30;;;;;;;24.00;21.48;;;18.80;99.90;;;;;;5127735;27;20115;-37
2023/05/12 09:35:00;;;;;;;23.63;20.58;;;18.90;99.90;;;;;;5152697;27;20042;-40
2023/05/12 09:37:31;;;;;;;22.55;20.15;;;19.10;99.90;;;;;;5165882;27;20045;-36
2023/05/12 09:40:06;;;;;;;22.60;20.13;;;19.40;99.90;;;;;;5155784;27;20030;-37
2023/05/12 09:42:34;;;;;;;21.52;19.23;;;19.80;99.90;;;;;;5153101;27;20034;-37
2023/05/12 09:45:08;;;;;;;21.55;19.35;;;20.30;99.90;;;;;;5138924;27;20129;-37
2023/05/12 09:47:38;;;;;;;22.02;19.63;;;20.50;99.90;;;;;;5147910;27;20038;-37
2023/05/12 09:50:06;;;;;;;21.52;19.23;;;20.50;99.90;;;;;;5174889;27;20085;-37
2023/05/12 09:52:37;;;;;;;19.25;17.20;;;20.70;99.90;;;;;;5168966;27;20087;-39
2023/05/12 09:55:05;;;;;;;19.73;17.77;;;20.80;99.90;;;;;;5149572;27;20076;-37
2023/05/12 09:57:35;;;;;;;20.42;18.30;;;21.10;99.90;;;;;;5148671;27;20030;-39
2023/05/12 10:00:03;;;;;;;20.95;18.77;;;21.50;99.90;;;;;;5143768;27;20050;-40
2023/05/12 10:02:29;;;;;;;20.30;18.30;;;21.80;99.90;;;;;;5144672;27;20038;-38
2023/05/12 10:05:03;;;;;;;18.00;16.30;;;22.00;99.90;;;;;;5146109;27;20099;-40
2023/05/12 10:07:30;;;;;;;17.80;15.57;;;22.20;99.90;;;;;;5163367;27;20121;-39
2023/05/12 10:10:00;;;;;;;17.42;15.85;;;22.50;99.90;;;;;;5145975;27;20030;-38
2023/05/12 10:12:26;;;;;;;17.23;15.52;;;22.50;99.90;;;;;;5150915;27;20041;-37
2023/05/12 10:14:52;;;;;;;15.77;14.20;;;22.50;99.90;;;;;;5168314;27;20031;-39
2023/05/12 10:17:19;;;;;;;15.93;14.35;;;22.60;99.90;;;;;;5147283;27;20094;-38
2023/05/12 10:19:47;;;;;;;15.07;13.68;;;22.40;99.90;;;;;;5149722;27;20042;-37
2023/05/12 10:22:16;;;;;;;13.07;11.88;;;22.40;99.90;;;;;;5146832;27;20109;-36
2023/05/12 10:24:43;;;;;;;13.35;12.10;;;22.40;99.90;;;;;;5169076;27;20054;-41
2023/05/12 10:27:10;;;;;;;13.60;12.30;;;22.50;99.90;;;;;;5140468;27;20038;-37
2023/05/12 10:29:37;;;;;;;12.70;11.60;;;22.70;99.90;;;;;;5148953;27;20034;-36
2023/05/12 10:32:05;;;;;;;13.57;12.27;;;23.10;99.90;;;;;;5166418;27;20050;-37
2023/05/12 10:34:36;;;;;;;13.10;12.00;;;23.40;99.90;;;;;;5128264;27;20090;-37
2023/05/12 10:37:12;;;;;;;12.10;11.10;;;23.90;99.90;;;;;;5149297;27;20053;-40
2023/05/12 10:39:49;;;;;;;10.27;9.45;;;24.20;99.90;;;;;;5145466;27;20330;-39
2023/05/12 10:42:24;;;;;;;10.18;9.27;;;24.50;99.90;;;;;;5153741;27;20050;-38
2023/05/12 10:44:55;;;;;;;10.90;9.02;;;24.70;99.90;;;;;;5146420;27;20095;-39
2023/05/12 10:47:37;;;;;;;10.13;9.32;;;24.70;99.90;;;;;;5150546;27;20487;-40
2023/05/12 10:50:03;;;;;;;10.40;9.50;;;24.80;99.90;;;;;;5144586;27;20039;-37
2023/05/12 10:52:29;;;;;;;9.82;9.02;;;24.90;99.90;;;;;;5156117;27;20057;-39
2023/05/12 10:55:03;;;;;;;8.57;7.88;;;25.10;99.90;;;;;;5145332;27;20035;-40
2023/05/12 10:57:29;;;;;;;8.30;7.60;;;25.40;99.90;;;;;;5143766;27;20073;-40
2023/05/12 10:59:57;;;;;;;8.95;8.25;;;25.70;99.90;;;;;;5149683;27;20118;-44
2023/05/12 11:02:31;;;;;;;9.02;8.23;;;25.50;99.90;;;;;;5152410;27;20038;-41
2023/05/12 11:04:59;;;;;;;8.93;8.23;;;25.40;99.90;;;;;;5147142;27;20481;-40
2023/05/12 11:07:28;;;;;;;8.35;7.75;;;25.40;99.90;;;;;;5149495;27;20030;-39
2023/05/12 11:09:56;;;;;;;8.98;8.30;;;25.60;99.90;;;;;;5154951;27;20414;-38
2023/05/12 11:12:22;;;;;;;9.27;8.52;;;25.60;99.90;;;;;;5153896;27;20034;-37
2023/05/12 11:14:48;;;;;;;9.73;8.88;;;25.90;99.90;;;;;;5171664;27;20041;-37
2023/05/12 11:17:15;;;;;;;10.80;9.93;;;26.10;99.90;;;;;;5146408;27;20041;-38
2023/05/12 11:19:48;;;;;;;9.68;8.98;;;26.20;99.90;;;;;;5150807;27;20052;-37
2023/05/12 11:22:18;;;;;;;10.40;9.60;;;26.60;99.90;;;;;;5172215;27;20070;-41
2023/05/12 11:24:44;;;;;;;10.25;9.40;;;26.90;99.90;;;;;;5145097;27;20091;-39
2023/05/12 11:27:15;;;;;;;11.68;10.77;;;26.90;99.90;;;;;;5174503;27;20038;-38
2023/05/12 11:29:42;;;;;;;11.32;10.32;;;26.80;99.90;;;;;;5152706;27;20038;-38
2023/05/12 11:32:11;;;;;;;12.43;11.43;;;26.80;99.90;;;;;;5146939;27;20049;-38
2023/05/12 11:34:37;;;;;;;11.23;10.32;;;27.20;99.90;;;;;;5139375;27;20106;-39
2023/05/12 11:37:05;;;;;;;14.20;13.10;;;27.60;99.90;;;;;;5144231;27;20174;-39
2023/05/12 11:39:31;;;;;;;14.48;13.32;;;28.00;99.90;;;;;;5145423;27;20073;-40
2023/05/12 11:42:06;;;;;;;13.73;12.55;;;27.70;99.90;;;;;;5147497;27;20034;-39
2023/05/12 11:44:32;;;;;;;13.02;11.93;;;27.90;98.90;;;;;;5143281;27;20049;-38
2023/05/12 11:47:00;;;;;;;12.02;10.60;;;27.90;99.90;;;;;;5147514;27;20391;-39
2023/05/12 11:49:28;;;;;;;9.90;9.10;;;28.10;92.10;;;;;;5147181;27;20038;-39
2023/05/12 11:51:55;;;;;;;10.95;10.05;;;28.40;92.30;;;;;;5147039;27;20567;-39
2023/05/12 11:54:22;;;;;;;10.57;9.85;;;28.20;87.10;;;;;;5143542;27;20087;-40
2023/05/12 11:56:49;;;;;;;11.98;11.05;;;28.40;75.40;;;;;;5153443;27;20030;-37
2023/05/12 11:59:30;;;;;;;10.52;9.82;;;28.40;78.80;;;;;;5144698;27;20030;-41
2023/05/12 12:02:01;;;;;;;11.02;10.23;;;28.80;68.10;;;;;;5148200;27;20503;-38
2023/05/12 12:04:45;;;;;;;11.65;10.75;;;28.70;74.50;;;;;;5155963;27;20042;-39
2023/05/12 12:07:11;;;;;;;11.10;10.30;;;28.80;63.20;;;;;;5145619;27;20038;-39
2023/05/12 12:09:41;;;;;;;11.68;10.60;;;28.90;81.10;;;;;;5150230;27;20078;-41
2023/05/12 12:12:10;;;;;;;11.43;10.63;;;29.20;82.50;;;;;;5151776;27;20066;-40
2023/05/12 12:14:37;;;;;;;11.50;10.60;;;29.60;74.60;;;;;;5151103;27;20026;-38
2023/05/12 12:17:03;;;;;;;11.85;10.85;;;29.70;68.70;;;;;;5146074;27;20035;-41
2023/05/12 12:19:29;;;;;;;12.73;11.63;;;29.70;63.40;;;;;;5141281;27;20069;-41
2023/05/12 12:21:56;;;;;;;11.25;10.45;;;29.70;62.00;;;;;;5143621;27;20045;-38
2023/05/12 12:24:23;;;;;;;12.43;11.30;;;29.90;61.60;;;;;;5152175;27;20036;-42
2023/05/12 12:26:49;;;;;;;9.73;8.98;;;30.10;58.50;;;;;;5146880;27;20035;-39